sensor_id;sensor_type;location;lat;lon;timestamp;P1;durP1;ratioP1;P2;durP2;ratioP2
17935;SDS011;9093;52.062;4.508;2022-10-15T00:00:48;21.13;;;9.18;;
17935;SDS011;9093;52.062;4.508;2022-10-15T00:03:29;17.80;;;7.90;;
17935;SDS011;9093;52.062;4.508;2022-10-15T00:06:10;21.08;;;8.95;;
17935;SDS011;9093;52.062;4.508;2022-10-15T00:08:52;15.20;;;7.95;;
17935;SDS011;9093;52.062;4.508;2022-10-15T00:11:33;22.95;;;9.18;;
17935;SDS011;9093;52.062;4.508;2022-10-15T00:14:13;21.20;;;8.20;;
17935;SDS011;9093;52.062;4.508;2022-10-15T00:16:53;22.77;;;9.60;;
17935;SDS011;9093;52.062;4.508;2022-10-15T00:19:34;21.00;;;9.65;;
17935;SDS011;9093;52.062;4.508;2022-10-15T00:22:14;16.23;;;7.90;;
17935;SDS011;9093;52.062;4.508;2022-10-15T00:24:54;18.45;;;8.40;;
17935;SDS011;9093;52.062;4.508;2022-10-15T00:27:35;18.67;;;8.43;;
17935;SDS011;9093;52.062;4.508;2022-10-15T00:30:15;22.25;;;8.30;;
17935;SDS011;9093;52.062;4.508;2022-10-15T00:32:56;16.60;;;9.07;;
17935;SDS011;9093;52.062;4.508;2022-10-15T00:35:36;21.63;;;9.18;;
17935;SDS011;9093;52.062;4.508;2022-10-15T00:38:16;17.23;;;8.30;;
17935;SDS011;9093;52.062;4.508;2022-10-15T00:40:57;18.00;;;7.95;;
17935;SDS011;9093;52.062;4.508;2022-10-15T00:46:21;19.27;;;9.63;;
17935;SDS011;9093;52.062;4.508;2022-10-15T00:49:21;19.10;;;8.45;;
17935;SDS011;9093;52.062;4.508;2022-10-15T00:52:10;19.95;;;9.35;;
17935;SDS011;9093;52.062;4.508;2022-10-15T00:54:58;20.35;;;8.55;;
17935;SDS011;9093;52.062;4.508;2022-10-15T00:57:44;18.25;;;8.38;;
17935;SDS011;9093;52.062;4.508;2022-10-15T01:00:28;20.70;;;8.85;;
17935;SDS011;9093;52.062;4.508;2022-10-15T01:03:08;19.13;;;8.82;;
17935;SDS011;9093;52.062;4.508;2022-10-15T01:05:51;24.85;;;8.68;;
17935;SDS011;9093;52.062;4.508;2022-10-15T01:08:32;22.77;;;9.20;;
17935;SDS011;9093;52.062;4.508;2022-10-15T01:11:27;22.63;;;10.30;;
17935;SDS011;9093;52.062;4.508;2022-10-15T01:18:07;21.33;;;9.95;;
17935;SDS011;9093;52.062;4.508;2022-10-15T01:23:41;20.88;;;9.25;;
17935;SDS011;9093;52.062;4.508;2022-10-15T01:26:35;18.27;;;9.40;;
17935;SDS011;9093;52.062;4.508;2022-10-15T01:29:46;20.35;;;9.77;;
17935;SDS011;9093;52.062;4.508;2022-10-15T01:32:34;24.45;;;10.20;;
17935;SDS011;9093;52.062;4.508;2022-10-15T01:41:13;22.45;;;9.63;;
17935;SDS011;9093;52.062;4.508;2022-10-15T01:44:01;20.00;;;9.15;;
17935;SDS011;9093;52.062;4.508;2022-10-15T01:46:48;24.10;;;9.82;;
17935;SDS011;9093;52.062;4.508;2022-10-15T01:49:35;21.20;;;9.82;;
17935;SDS011;9093;52.062;4.508;2022-10-15T01:52:22;26.45;;;9.88;;
17935;SDS011;9093;52.062;4.508;2022-10-15T01:55:07;21.08;;;9.73;;
17935;SDS011;9093;52.062;4.508;2022-10-15T01:57:50;26.42;;;10.38;;
17935;SDS011;9093;52.062;4.508;2022-10-15T02:00:32;24.05;;;10.10;;
17935;SDS011;9093;52.062;4.508;2022-10-15T02:03:13;17.88;;;8.68;;
17935;SDS011;9093;52.062;4.508;2022-10-15T02:06:03;19.52;;;9.63;;
17935;SDS011;9093;52.062;4.508;2022-10-15T02:12:32;22.30;;;10.15;;
17935;SDS011;9093;52.062;4.508;2022-10-15T02:15:45;22.20;;;9.65;;
17935;SDS011;9093;52.062;4.508;2022-10-15T02:18:56;28.63;;;10.40;;
17935;SDS011;9093;52.062;4.508;2022-10-15T02:22:02;22.88;;;9.82;;
17935;SDS011;9093;52.062;4.508;2022-10-15T02:24:57;22.10;;;9.25;;
17935;SDS011;9093;52.062;4.508;2022-10-15T02:27:46;24.20;;;10.10;;
17935;SDS011;9093;52.062;4.508;2022-10-15T02:30:29;28.70;;;11.35;;
17935;SDS011;9093;52.062;4.508;2022-10-15T02:33:10;33.60;;;11.00;;
17935;SDS011;9093;52.062;4.508;2022-10-15T02:35:52;17.77;;;8.73;;
17935;SDS011;9093;52.062;4.508;2022-10-15T02:38:33;21.35;;;10.23;;
17935;SDS011;9093;52.062;4.508;2022-10-15T02:41:14;20.58;;;9.57;;
17935;SDS011;9093;52.062;4.508;2022-10-15T02:43:54;19.85;;;10.35;;
17935;SDS011;9093;52.062;4.508;2022-10-15T02:46:34;19.20;;;9.85;;
17935;SDS011;9093;52.062;4.508;2022-10-15T02:49:15;17.35;;;9.18;;
17935;SDS011;9093;52.062;4.508;2022-10-15T02:51:55;19.75;;;10.25;;
17935;SDS011;9093;52.062;4.508;2022-10-15T02:54:36;21.42;;;8.90;;
17935;SDS011;9093;52.062;4.508;2022-10-15T02:57:16;21.10;;;9.98;;
17935;SDS011;9093;52.062;4.508;2022-10-15T02:59:56;21.83;;;11.15;;
17935;SDS011;9093;52.062;4.508;2022-10-15T03:02:36;22.95;;;9.68;;
17935;SDS011;9093;52.062;4.508;2022-10-15T03:05:17;21.20;;;10.55;;
17935;SDS011;9093;52.062;4.508;2022-10-15T03:07:58;20.92;;;9.45;;
17935;SDS011;9093;52.062;4.508;2022-10-15T03:10:39;29.73;;;11.13;;
17935;SDS011;9093;52.062;4.508;2022-10-15T03:13:19;24.20;;;10.57;;
17935;SDS011;9093;52.062;4.508;2022-10-15T03:16:02;24.10;;;10.55;;
17935;SDS011;9093;52.062;4.508;2022-10-15T03:18:43;25.05;;;9.68;;
17935;SDS011;9093;52.062;4.508;2022-10-15T03:21:24;22.23;;;10.63;;
17935;SDS011;9093;52.062;4.508;2022-10-15T03:24:09;17.77;;;10.00;;
17935;SDS011;9093;52.062;4.508;2022-10-15T03:26:50;18.20;;;9.10;;
17935;SDS011;9093;52.062;4.508;2022-10-15T03:29:30;17.00;;;9.47;;
17935;SDS011;9093;52.062;4.508;2022-10-15T03:32:10;19.57;;;9.00;;
17935;SDS011;9093;52.062;4.508;2022-10-15T03:34:50;27.42;;;10.07;;
17935;SDS011;9093;52.062;4.508;2022-10-15T03:37:31;18.50;;;8.88;;
17935;SDS011;9093;52.062;4.508;2022-10-15T03:40:11;21.17;;;8.88;;
17935;SDS011;9093;52.062;4.508;2022-10-15T03:42:52;27.52;;;10.43;;
17935;SDS011;9093;52.062;4.508;2022-10-15T03:45:32;24.77;;;9.48;;
17935;SDS011;9093;52.062;4.508;2022-10-15T03:48:12;21.50;;;10.25;;
17935;SDS011;9093;52.062;4.508;2022-10-15T03:50:53;17.10;;;9.13;;
17935;SDS011;9093;52.062;4.508;2022-10-15T03:53:33;20.48;;;9.35;;
17935;SDS011;9093;52.062;4.508;2022-10-15T03:56:13;17.58;;;9.10;;
17935;SDS011;9093;52.062;4.508;2022-10-15T03:58:54;16.90;;;9.18;;
17935;SDS011;9093;52.062;4.508;2022-10-15T04:01:34;23.60;;;10.18;;
17935;SDS011;9093;52.062;4.508;2022-10-15T04:04:14;16.75;;;8.50;;
17935;SDS011;9093;52.062;4.508;2022-10-15T04:06:54;22.88;;;10.13;;
17935;SDS011;9093;52.062;4.508;2022-10-15T04:09:38;22.10;;;10.00;;
17935;SDS011;9093;52.062;4.508;2022-10-15T04:12:18;26.45;;;11.27;;
17935;SDS011;9093;52.062;4.508;2022-10-15T04:14:58;16.65;;;9.43;;
17935;SDS011;9093;52.062;4.508;2022-10-15T04:17:38;28.77;;;12.25;;
17935;SDS011;9093;52.062;4.508;2022-10-15T04:20:19;22.85;;;10.63;;
17935;SDS011;9093;52.062;4.508;2022-10-15T04:22:59;21.25;;;11.15;;
17935;SDS011;9093;52.062;4.508;2022-10-15T04:25:39;22.35;;;10.20;;
17935;SDS011;9093;52.062;4.508;2022-10-15T04:28:20;25.65;;;11.40;;
17935;SDS011;9093;52.062;4.508;2022-10-15T04:31:00;18.67;;;10.07;;
17935;SDS011;9093;52.062;4.508;2022-10-15T04:33:41;27.23;;;13.05;;
17935;SDS011;9093;52.062;4.508;2022-10-15T04:36:21;30.03;;;11.03;;
17935;SDS011;9093;52.062;4.508;2022-10-15T04:39:01;22.52;;;11.05;;
17935;SDS011;9093;52.062;4.508;2022-10-15T04:41:43;25.83;;;11.45;;
17935;SDS011;9093;52.062;4.508;2022-10-15T04:44:23;18.40;;;9.90;;
17935;SDS011;9093;52.062;4.508;2022-10-15T04:47:03;22.20;;;11.47;;
17935;SDS011;9093;52.062;4.508;2022-10-15T04:49:43;22.15;;;11.35;;
17935;SDS011;9093;52.062;4.508;2022-10-15T04:52:24;25.13;;;11.32;;
17935;SDS011;9093;52.062;4.508;2022-10-15T04:55:04;22.67;;;11.50;;
17935;SDS011;9093;52.062;4.508;2022-10-15T04:57:45;24.67;;;10.95;;
17935;SDS011;9093;52.062;4.508;2022-10-15T05:00:25;21.27;;;9.97;;
17935;SDS011;9093;52.062;4.508;2022-10-15T05:03:05;23.83;;;11.90;;
17935;SDS011;9093;52.062;4.508;2022-10-15T05:05:46;26.10;;;11.77;;
17935;SDS011;9093;52.062;4.508;2022-10-15T05:08:26;23.83;;;10.83;;
17935;SDS011;9093;52.062;4.508;2022-10-15T05:11:13;28.67;;;12.18;;
17935;SDS011;9093;52.062;4.508;2022-10-15T05:13:57;26.17;;;11.23;;
17935;SDS011;9093;52.062;4.508;2022-10-15T05:16:38;25.20;;;11.32;;
17935;SDS011;9093;52.062;4.508;2022-10-15T05:19:18;21.58;;;10.95;;
17935;SDS011;9093;52.062;4.508;2022-10-15T05:21:58;27.48;;;11.90;;
17935;SDS011;9093;52.062;4.508;2022-10-15T05:24:38;22.90;;;10.83;;
17935;SDS011;9093;52.062;4.508;2022-10-15T05:27:19;22.10;;;11.17;;
17935;SDS011;9093;52.062;4.508;2022-10-15T05:29:59;21.02;;;10.15;;
17935;SDS011;9093;52.062;4.508;2022-10-15T05:32:40;19.88;;;10.38;;
17935;SDS011;9093;52.062;4.508;2022-10-15T05:35:20;22.42;;;10.65;;
17935;SDS011;9093;52.062;4.508;2022-10-15T05:38:01;26.25;;;12.20;;
17935;SDS011;9093;52.062;4.508;2022-10-15T05:40:46;25.35;;;11.32;;
17935;SDS011;9093;52.062;4.508;2022-10-15T05:43:27;21.33;;;10.23;;
17935;SDS011;9093;52.062;4.508;2022-10-15T05:46:07;27.97;;;12.10;;
17935;SDS011;9093;52.062;4.508;2022-10-15T05:48:48;24.65;;;11.15;;
17935;SDS011;9093;52.062;4.508;2022-10-15T05:51:33;34.97;;;11.35;;
17935;SDS011;9093;52.062;4.508;2022-10-15T05:54:13;25.13;;;10.93;;
17935;SDS011;9093;52.062;4.508;2022-10-15T05:56:53;27.75;;;11.13;;
17935;SDS011;9093;52.062;4.508;2022-10-15T05:59:34;28.85;;;12.23;;
17935;SDS011;9093;52.062;4.508;2022-10-15T06:02:14;24.90;;;11.97;;
17935;SDS011;9093;52.062;4.508;2022-10-15T06:04:57;25.45;;;10.70;;
17935;SDS011;9093;52.062;4.508;2022-10-15T06:07:38;27.90;;;11.57;;
17935;SDS011;9093;52.062;4.508;2022-10-15T06:10:18;23.00;;;10.73;;
17935;SDS011;9093;52.062;4.508;2022-10-15T06:12:58;25.70;;;11.55;;
17935;SDS011;9093;52.062;4.508;2022-10-15T06:15:42;21.85;;;10.20;;
17935;SDS011;9093;52.062;4.508;2022-10-15T06:18:32;24.42;;;10.80;;
17935;SDS011;9093;52.062;4.508;2022-10-15T06:21:13;22.33;;;9.48;;
17935;SDS011;9093;52.062;4.508;2022-10-15T06:23:56;26.23;;;10.88;;
17935;SDS011;9093;52.062;4.508;2022-10-15T06:29:16;21.73;;;9.93;;
17935;SDS011;9093;52.062;4.508;2022-10-15T06:31:57;15.13;;;8.80;;
17935;SDS011;9093;52.062;4.508;2022-10-15T06:34:46;23.17;;;10.18;;
17935;SDS011;9093;52.062;4.508;2022-10-15T06:37:29;22.73;;;9.43;;
17935;SDS011;9093;52.062;4.508;2022-10-15T06:40:22;21.98;;;9.60;;
17935;SDS011;9093;52.062;4.508;2022-10-15T06:46:29;22.85;;;9.20;;
17935;SDS011;9093;52.062;4.508;2022-10-15T06:49:28;19.73;;;9.77;;
17935;SDS011;9093;52.062;4.508;2022-10-15T06:54:48;16.63;;;7.27;;
17935;SDS011;9093;52.062;4.508;2022-10-15T06:57:28;19.73;;;9.23;;
17935;SDS011;9093;52.062;4.508;2022-10-15T07:00:09;23.50;;;8.95;;
17935;SDS011;9093;52.062;4.508;2022-10-15T07:02:50;28.27;;;9.70;;
17935;SDS011;9093;52.062;4.508;2022-10-15T07:05:31;23.33;;;9.30;;
17935;SDS011;9093;52.062;4.508;2022-10-15T07:08:11;25.67;;;9.95;;
17935;SDS011;9093;52.062;4.508;2022-10-15T07:10:52;28.30;;;10.20;;
17935;SDS011;9093;52.062;4.508;2022-10-15T07:13:32;24.98;;;9.07;;
17935;SDS011;9093;52.062;4.508;2022-10-15T07:16:12;20.20;;;9.67;;
17935;SDS011;9093;52.062;4.508;2022-10-15T07:18:53;25.87;;;11.03;;
17935;SDS011;9093;52.062;4.508;2022-10-15T07:21:33;28.25;;;12.15;;
17935;SDS011;9093;52.062;4.508;2022-10-15T07:24:13;27.40;;;10.07;;
17935;SDS011;9093;52.062;4.508;2022-10-15T07:26:53;33.20;;;11.93;;
17935;SDS011;9093;52.062;4.508;2022-10-15T07:29:34;23.50;;;10.82;;
17935;SDS011;9093;52.062;4.508;2022-10-15T07:32:14;25.20;;;11.57;;
17935;SDS011;9093;52.062;4.508;2022-10-15T07:34:54;29.10;;;11.57;;
17935;SDS011;9093;52.062;4.508;2022-10-15T07:37:34;28.38;;;9.57;;
17935;SDS011;9093;52.062;4.508;2022-10-15T07:40:15;25.07;;;9.50;;
17935;SDS011;9093;52.062;4.508;2022-10-15T07:42:57;23.65;;;10.10;;
17935;SDS011;9093;52.062;4.508;2022-10-15T07:45:38;21.00;;;8.98;;
17935;SDS011;9093;52.062;4.508;2022-10-15T07:48:18;23.95;;;10.32;;
17935;SDS011;9093;52.062;4.508;2022-10-15T07:51:00;25.08;;;9.82;;
17935;SDS011;9093;52.062;4.508;2022-10-15T07:53:43;25.38;;;11.43;;
17935;SDS011;9093;52.062;4.508;2022-10-15T07:56:23;21.50;;;9.95;;
17935;SDS011;9093;52.062;4.508;2022-10-15T07:59:03;31.10;;;11.27;;
17935;SDS011;9093;52.062;4.508;2022-10-15T08:01:43;29.07;;;12.07;;
17935;SDS011;9093;52.062;4.508;2022-10-15T08:04:24;32.53;;;11.80;;
17935;SDS011;9093;52.062;4.508;2022-10-15T08:07:04;35.47;;;10.97;;
17935;SDS011;9093;52.062;4.508;2022-10-15T08:09:44;40.17;;;13.50;;
17935;SDS011;9093;52.062;4.508;2022-10-15T08:12:24;38.10;;;14.20;;
17935;SDS011;9093;52.062;4.508;2022-10-15T08:15:07;43.88;;;13.45;;
17935;SDS011;9093;52.062;4.508;2022-10-15T08:17:48;37.50;;;13.55;;
17935;SDS011;9093;52.062;4.508;2022-10-15T08:20:28;93.88;;;34.65;;
17935;SDS011;9093;52.062;4.508;2022-10-15T08:23:15;29.85;;;12.07;;
17935;SDS011;9093;52.062;4.508;2022-10-15T08:25:56;43.90;;;13.60;;
17935;SDS011;9093;52.062;4.508;2022-10-15T08:28:40;41.17;;;14.57;;
17935;SDS011;9093;52.062;4.508;2022-10-15T08:31:20;22.77;;;9.13;;
17935;SDS011;9093;52.062;4.508;2022-10-15T08:34:01;35.17;;;12.13;;
17935;SDS011;9093;52.062;4.508;2022-10-15T08:36:41;35.33;;;12.48;;
17935;SDS011;9093;52.062;4.508;2022-10-15T08:39:22;42.03;;;14.68;;
17935;SDS011;9093;52.062;4.508;2022-10-15T08:42:06;41.80;;;13.90;;
17935;SDS011;9093;52.062;4.508;2022-10-15T08:44:57;25.25;;;11.23;;
17935;SDS011;9093;52.062;4.508;2022-10-15T08:53:50;29.13;;;11.18;;
17935;SDS011;9093;52.062;4.508;2022-10-15T08:56:37;27.83;;;11.80;;
17935;SDS011;9093;52.062;4.508;2022-10-15T08:59:33;25.73;;;11.38;;
17935;SDS011;9093;52.062;4.508;2022-10-15T09:02:23;28.67;;;10.75;;
17935;SDS011;9093;52.062;4.508;2022-10-15T09:08:28;25.60;;;11.65;;
17935;SDS011;9093;52.062;4.508;2022-10-15T09:11:33;25.38;;;11.98;;
17935;SDS011;9093;52.062;4.508;2022-10-15T09:14:54;19.50;;;9.93;;
17935;SDS011;9093;52.062;4.508;2022-10-15T09:17:28;19.98;;;8.35;;
17935;SDS011;9093;52.062;4.508;2022-10-15T09:20:16;19.08;;;9.43;;
17935;SDS011;9093;52.062;4.508;2022-10-15T09:22:59;21.27;;;9.68;;
17935;SDS011;9093;52.062;4.508;2022-10-15T09:25:39;24.63;;;9.77;;
17935;SDS011;9093;52.062;4.508;2022-10-15T09:28:30;18.65;;;8.48;;
17935;SDS011;9093;52.062;4.508;2022-10-15T09:31:19;15.55;;;8.77;;
17935;SDS011;9093;52.062;4.508;2022-10-15T09:34:04;18.65;;;8.55;;
17935;SDS011;9093;52.062;4.508;2022-10-15T09:37:00;15.95;;;7.63;;
17935;SDS011;9093;52.062;4.508;2022-10-15T09:39:56;19.27;;;8.48;;
17935;SDS011;9093;52.062;4.508;2022-10-15T09:42:48;17.50;;;8.02;;
17935;SDS011;9093;52.062;4.508;2022-10-15T09:45:31;22.67;;;7.15;;
17935;SDS011;9093;52.062;4.508;2022-10-15T09:48:16;14.88;;;7.55;;
17935;SDS011;9093;52.062;4.508;2022-10-15T09:54:09;16.20;;;7.57;;
17935;SDS011;9093;52.062;4.508;2022-10-15T09:56:57;14.30;;;7.50;;
17935;SDS011;9093;52.062;4.508;2022-10-15T09:59:38;13.02;;;6.85;;
17935;SDS011;9093;52.062;4.508;2022-10-15T10:02:32;14.40;;;6.15;;
17935;SDS011;9093;52.062;4.508;2022-10-15T10:05:23;13.63;;;5.70;;
17935;SDS011;9093;52.062;4.508;2022-10-15T10:08:20;15.50;;;4.97;;
17935;SDS011;9093;52.062;4.508;2022-10-15T10:11:03;11.48;;;5.20;;
17935;SDS011;9093;52.062;4.508;2022-10-15T10:16:29;8.57;;;4.38;;
17935;SDS011;9093;52.062;4.508;2022-10-15T10:19:13;9.65;;;4.95;;
17935;SDS011;9093;52.062;4.508;2022-10-15T10:21:54;7.47;;;3.87;;
17935;SDS011;9093;52.062;4.508;2022-10-15T10:24:46;7.18;;;3.92;;
17935;SDS011;9093;52.062;4.508;2022-10-15T10:27:27;9.88;;;4.50;;
17935;SDS011;9093;52.062;4.508;2022-10-15T10:30:12;7.85;;;3.85;;
17935;SDS011;9093;52.062;4.508;2022-10-15T10:32:55;9.80;;;4.95;;
17935;SDS011;9093;52.062;4.508;2022-10-15T10:35:46;8.88;;;4.28;;
17935;SDS011;9093;52.062;4.508;2022-10-15T10:38:31;7.50;;;4.40;;
17935;SDS011;9093;52.062;4.508;2022-10-15T10:41:13;7.85;;;4.20;;
17935;SDS011;9093;52.062;4.508;2022-10-15T10:43:54;10.07;;;4.03;;
17935;SDS011;9093;52.062;4.508;2022-10-15T10:46:35;9.23;;;3.80;;
17935;SDS011;9093;52.062;4.508;2022-10-15T10:49:16;9.52;;;4.05;;
17935;SDS011;9093;52.062;4.508;2022-10-15T10:55:16;5.60;;;3.20;;
17935;SDS011;9093;52.062;4.508;2022-10-15T10:57:58;6.40;;;3.30;;
17935;SDS011;9093;52.062;4.508;2022-10-15T11:00:44;4.95;;;2.67;;
17935;SDS011;9093;52.062;4.508;2022-10-15T11:03:36;4.97;;;3.05;;
17935;SDS011;9093;52.062;4.508;2022-10-15T11:15:38;7.25;;;2.70;;
17935;SDS011;9093;52.062;4.508;2022-10-15T11:22:04;6.13;;;3.22;;
17935;SDS011;9093;52.062;4.508;2022-10-15T11:30:50;5.38;;;2.95;;
17935;SDS011;9093;52.062;4.508;2022-10-15T11:33:50;5.00;;;2.97;;
17935;SDS011;9093;52.062;4.508;2022-10-15T11:39:57;13.77;;;6.30;;
17935;SDS011;9093;52.062;4.508;2022-10-15T11:42:54;5.97;;;3.13;;
17935;SDS011;9093;52.062;4.508;2022-10-15T11:45:59;7.32;;;3.70;;
17935;SDS011;9093;52.062;4.508;2022-10-15T11:55:00;7.57;;;4.38;;
17935;SDS011;9093;52.062;4.508;2022-10-15T11:57:48;9.63;;;5.25;;
17935;SDS011;9093;52.062;4.508;2022-10-15T12:00:34;9.25;;;5.03;;
17935;SDS011;9093;52.062;4.508;2022-10-15T12:03:20;9.00;;;4.80;;
17935;SDS011;9093;52.062;4.508;2022-10-15T12:06:12;9.35;;;4.97;;
17935;SDS011;9093;52.062;4.508;2022-10-15T12:08:58;8.43;;;4.75;;
17935;SDS011;9093;52.062;4.508;2022-10-15T12:14:33;6.93;;;4.07;;
17935;SDS011;9093;52.062;4.508;2022-10-15T12:17:20;9.52;;;4.25;;
17935;SDS011;9093;52.062;4.508;2022-10-15T12:20:06;6.30;;;3.80;;
17935;SDS011;9093;52.062;4.508;2022-10-15T12:28:19;6.07;;;3.40;;
17935;SDS011;9093;52.062;4.508;2022-10-15T12:31:02;6.88;;;3.60;;
17935;SDS011;9093;52.062;4.508;2022-10-15T12:33:52;5.28;;;3.17;;
17935;SDS011;9093;52.062;4.508;2022-10-15T12:36:34;5.25;;;3.03;;
17935;SDS011;9093;52.062;4.508;2022-10-15T12:39:21;9.00;;;3.78;;
17935;SDS011;9093;52.062;4.508;2022-10-15T12:42:03;8.70;;;4.75;;
17935;SDS011;9093;52.062;4.508;2022-10-15T12:44:46;6.30;;;4.07;;
17935;SDS011;9093;52.062;4.508;2022-10-15T12:50:27;7.53;;;3.40;;
17935;SDS011;9093;52.062;4.508;2022-10-15T13:04:22;4.22;;;2.60;;
17935;SDS011;9093;52.062;4.508;2022-10-15T13:07:14;4.25;;;2.22;;
17935;SDS011;9093;52.062;4.508;2022-10-15T13:09:58;4.70;;;2.38;;
17935;SDS011;9093;52.062;4.508;2022-10-15T13:12:38;2.13;;;1.25;;
17935;SDS011;9093;52.062;4.508;2022-10-15T13:15:18;6.60;;;1.70;;
17935;SDS011;9093;52.062;4.508;2022-10-15T13:18:06;2.28;;;1.20;;
17935;SDS011;9093;52.062;4.508;2022-10-15T13:20:50;0.98;;;0.60;;
17935;SDS011;9093;52.062;4.508;2022-10-15T13:23:34;1.83;;;0.80;;
17935;SDS011;9093;52.062;4.508;2022-10-15T13:29:12;3.78;;;0.70;;
17935;SDS011;9093;52.062;4.508;2022-10-15T13:31:55;2.10;;;0.60;;
17935;SDS011;9093;52.062;4.508;2022-10-15T13:34:36;4.60;;;0.60;;
17935;SDS011;9093;52.062;4.508;2022-10-15T13:37:18;3.20;;;0.50;;
17935;SDS011;9093;52.062;4.508;2022-10-15T13:40:03;2.83;;;0.40;;
17935;SDS011;9093;52.062;4.508;2022-10-15T13:46:01;4.00;;;0.70;;
17935;SDS011;9093;52.062;4.508;2022-10-15T13:48:42;1.10;;;0.70;;
17935;SDS011;9093;52.062;4.508;2022-10-15T13:51:22;7.97;;;0.60;;
17935;SDS011;9093;52.062;4.508;2022-10-15T13:54:29;4.32;;;0.50;;
17935;SDS011;9093;52.062;4.508;2022-10-15T13:57:11;3.47;;;0.80;;
17935;SDS011;9093;52.062;4.508;2022-10-15T13:59:54;2.58;;;0.60;;
17935;SDS011;9093;52.062;4.508;2022-10-15T14:02:34;0.60;;;0.40;;
17935;SDS011;9093;52.062;4.508;2022-10-15T14:05:14;0.50;;;0.30;;
17935;SDS011;9093;52.062;4.508;2022-10-15T14:07:55;2.05;;;0.43;;
17935;SDS011;9093;52.062;4.508;2022-10-15T14:10:36;4.47;;;0.60;;
17935;SDS011;9093;52.062;4.508;2022-10-15T14:13:16;0.77;;;0.50;;
17935;SDS011;9093;52.062;4.508;2022-10-15T14:18:52;2.40;;;1.20;;
17935;SDS011;9093;52.062;4.508;2022-10-15T14:21:36;2.33;;;0.68;;
17935;SDS011;9093;52.062;4.508;2022-10-15T14:24:26;3.00;;;0.68;;
17935;SDS011;9093;52.062;4.508;2022-10-15T14:27:14;2.03;;;1.08;;
17935;SDS011;9093;52.062;4.508;2022-10-15T14:29:58;5.40;;;0.95;;
17935;SDS011;9093;52.062;4.508;2022-10-15T14:32:44;1.48;;;0.90;;
17935;SDS011;9093;52.062;4.508;2022-10-15T14:35:32;3.20;;;0.57;;
17935;SDS011;9093;52.062;4.508;2022-10-15T14:38:14;3.38;;;0.75;;
17935;SDS011;9093;52.062;4.508;2022-10-15T14:40:56;2.60;;;0.77;;
17935;SDS011;9093;52.062;4.508;2022-10-15T14:43:38;4.63;;;0.90;;
17935;SDS011;9093;52.062;4.508;2022-10-15T14:46:18;6.70;;;0.53;;
17935;SDS011;9093;52.062;4.508;2022-10-15T14:48:59;3.83;;;0.60;;
17935;SDS011;9093;52.062;4.508;2022-10-15T14:51:40;1.00;;;0.60;;
17935;SDS011;9093;52.062;4.508;2022-10-15T14:54:22;2.53;;;0.55;;
17935;SDS011;9093;52.062;4.508;2022-10-15T14:57:15;4.95;;;0.75;;
17935;SDS011;9093;52.062;4.508;2022-10-15T15:00:02;14.23;;;1.15;;
17935;SDS011;9093;52.062;4.508;2022-10-15T15:02:56;2.05;;;0.45;;
17935;SDS011;9093;52.062;4.508;2022-10-15T15:05:47;2.30;;;0.73;;
17935;SDS011;9093;52.062;4.508;2022-10-15T15:08:31;3.25;;;0.77;;
17935;SDS011;9093;52.062;4.508;2022-10-15T15:11:13;1.23;;;0.52;;
17935;SDS011;9093;52.062;4.508;2022-10-15T15:13:57;1.05;;;0.63;;
17935;SDS011;9093;52.062;4.508;2022-10-15T15:16:37;1.60;;;0.50;;
17935;SDS011;9093;52.062;4.508;2022-10-15T15:19:17;2.23;;;0.50;;
17935;SDS011;9093;52.062;4.508;2022-10-15T15:21:57;0.83;;;0.63;;
17935;SDS011;9093;52.062;4.508;2022-10-15T15:24:38;1.55;;;0.65;;
17935;SDS011;9093;52.062;4.508;2022-10-15T15:27:22;1.42;;;0.68;;
17935;SDS011;9093;52.062;4.508;2022-10-15T15:30:06;6.32;;;0.70;;
17935;SDS011;9093;52.062;4.508;2022-10-15T15:32:52;4.68;;;1.83;;
17935;SDS011;9093;52.062;4.508;2022-10-15T15:35:38;3.47;;;1.95;;
17935;SDS011;9093;52.062;4.508;2022-10-15T15:38:23;3.47;;;0.85;;
17935;SDS011;9093;52.062;4.508;2022-10-15T15:41:10;2.50;;;0.77;;
17935;SDS011;9093;52.062;4.508;2022-10-15T15:43:58;1.45;;;0.77;;
17935;SDS011;9093;52.062;4.508;2022-10-15T15:46:39;2.45;;;0.90;;
17935;SDS011;9093;52.062;4.508;2022-10-15T15:49:19;2.88;;;0.82;;
17935;SDS011;9093;52.062;4.508;2022-10-15T15:52:00;1.20;;;0.68;;
17935;SDS011;9093;52.062;4.508;2022-10-15T15:54:40;4.80;;;0.82;;
17935;SDS011;9093;52.062;4.508;2022-10-15T15:57:21;0.98;;;0.60;;
17935;SDS011;9093;52.062;4.508;2022-10-15T16:00:02;3.43;;;0.60;;
17935;SDS011;9093;52.062;4.508;2022-10-15T16:02:48;0.80;;;0.50;;
17935;SDS011;9093;52.062;4.508;2022-10-15T16:05:28;0.50;;;0.40;;
17935;SDS011;9093;52.062;4.508;2022-10-15T16:08:09;3.35;;;0.73;;
17935;SDS011;9093;52.062;4.508;2022-10-15T16:10:49;0.95;;;0.57;;
17935;SDS011;9093;52.062;4.508;2022-10-15T16:13:30;1.08;;;0.63;;
17935;SDS011;9093;52.062;4.508;2022-10-15T16:16:11;7.88;;;1.40;;
17935;SDS011;9093;52.062;4.508;2022-10-15T16:18:51;0.90;;;0.55;;
17935;SDS011;9093;52.062;4.508;2022-10-15T16:21:32;4.97;;;0.73;;
17935;SDS011;9093;52.062;4.508;2022-10-15T16:24:13;6.78;;;1.13;;
17935;SDS011;9093;52.062;4.508;2022-10-15T16:26:53;5.07;;;0.70;;
17935;SDS011;9093;52.062;4.508;2022-10-15T16:29:33;0.73;;;0.57;;
17935;SDS011;9093;52.062;4.508;2022-10-15T16:32:14;6.90;;;1.00;;
17935;SDS011;9093;52.062;4.508;2022-10-15T16:34:54;3.88;;;1.30;;
17935;SDS011;9093;52.062;4.508;2022-10-15T16:37:38;5.50;;;1.00;;
17935;SDS011;9093;52.062;4.508;2022-10-15T16:40:18;5.38;;;1.23;;
17935;SDS011;9093;52.062;4.508;2022-10-15T16:42:58;5.72;;;1.00;;
17935;SDS011;9093;52.062;4.508;2022-10-15T16:45:39;3.63;;;0.70;;
17935;SDS011;9093;52.062;4.508;2022-10-15T16:48:19;2.70;;;0.82;;
17935;SDS011;9093;52.062;4.508;2022-10-15T16:51:00;3.70;;;1.07;;
17935;SDS011;9093;52.062;4.508;2022-10-15T16:53:44;9.18;;;0.80;;
17935;SDS011;9093;52.062;4.508;2022-10-15T16:56:26;3.50;;;0.70;;
17935;SDS011;9093;52.062;4.508;2022-10-15T16:59:07;6.28;;;1.15;;
17935;SDS011;9093;52.062;4.508;2022-10-15T17:01:48;2.10;;;0.77;;
17935;SDS011;9093;52.062;4.508;2022-10-15T17:04:28;1.85;;;0.80;;
17935;SDS011;9093;52.062;4.508;2022-10-15T17:07:09;4.95;;;1.20;;
17935;SDS011;9093;52.062;4.508;2022-10-15T17:09:49;5.22;;;1.17;;
17935;SDS011;9093;52.062;4.508;2022-10-15T17:12:29;2.03;;;0.70;;
17935;SDS011;9093;52.062;4.508;2022-10-15T17:15:10;1.95;;;0.73;;
17935;SDS011;9093;52.062;4.508;2022-10-15T17:17:50;4.97;;;0.95;;
17935;SDS011;9093;52.062;4.508;2022-10-15T17:20:30;4.45;;;0.98;;
17935;SDS011;9093;52.062;4.508;2022-10-15T17:23:13;6.00;;;1.25;;
17935;SDS011;9093;52.062;4.508;2022-10-15T17:25:54;4.68;;;0.93;;
17935;SDS011;9093;52.062;4.508;2022-10-15T17:28:37;3.63;;;1.00;;
17935;SDS011;9093;52.062;4.508;2022-10-15T17:31:23;6.32;;;1.35;;
17935;SDS011;9093;52.062;4.508;2022-10-15T17:34:05;7.20;;;1.00;;
17935;SDS011;9093;52.062;4.508;2022-10-15T17:36:47;3.03;;;1.00;;
17935;SDS011;9093;52.062;4.508;2022-10-15T17:39:28;2.88;;;0.95;;
17935;SDS011;9093;52.062;4.508;2022-10-15T17:42:08;8.18;;;0.93;;
17935;SDS011;9093;52.062;4.508;2022-10-15T17:44:49;3.90;;;0.68;;
17935;SDS011;9093;52.062;4.508;2022-10-15T17:47:29;3.10;;;1.17;;
17935;SDS011;9093;52.062;4.508;2022-10-15T17:50:09;4.83;;;0.70;;
17935;SDS011;9093;52.062;4.508;2022-10-15T17:52:53;7.15;;;0.93;;
17935;SDS011;9093;52.062;4.508;2022-10-15T17:55:35;8.35;;;1.50;;
17935;SDS011;9093;52.062;4.508;2022-10-15T17:58:16;10.90;;;0.88;;
17935;SDS011;9093;52.062;4.508;2022-10-15T18:00:57;2.58;;;0.88;;
17935;SDS011;9093;52.062;4.508;2022-10-15T18:03:37;9.15;;;0.73;;
17935;SDS011;9093;52.062;4.508;2022-10-15T18:06:18;5.03;;;1.10;;
17935;SDS011;9093;52.062;4.508;2022-10-15T18:09:00;7.53;;;1.10;;
17935;SDS011;9093;52.062;4.508;2022-10-15T18:11:41;3.58;;;1.00;;
17935;SDS011;9093;52.062;4.508;2022-10-15T18:14:21;3.70;;;0.82;;